YTLG weather

Taralga Grathawa Airport
New South Wales, Australia

Public forecast

Using degrees Celsius for public forecast. Weather courtesy of forecast.io.

Closest aviation weather report (METAR) to Taralga Grathawa Airport

Closest report is Nowra Airport, 54.4 nm (100.8 km) SE. Retrieved 2019/10/22 15:00 UTC (10 minutes ago):

YSNW 221500Z AUTO 00000KT 9999 // NCD 11/11 Q1023

Closest aviation forecast (TAF) to Taralga Grathawa Airport

Closest forecast is RAAF Base Richmond, 64.7 nm (119.8 km) NE. Retrieved 2019/10/22 12:36 UTC (3 hours ago):

TAF YSRI 221104Z 2212/2312 VRB03KT 9999 FEW015 BKN020 FM222300 04008KT CAVOK FM230500 08012KT CAVOK FM231000 VRB05KT CAVOK